sensor_id;sensor_type;location;lat;lon;timestamp;pressure;altitude;pressure_sealevel;temperature;humidity
51876;BME280;34054;52.100;5.116;2023-07-09T00:00:01;101498.69;;;27.18;70.45
51876;BME280;34054;52.100;5.116;2023-07-09T00:00:32;101505.06;;;27.19;70.78
51876;BME280;34054;52.100;5.116;2023-07-09T00:01:04;101498.69;;;27.18;70.32
51876;BME280;34054;52.100;5.116;2023-07-09T00:01:37;101500.75;;;27.21;70.61
51876;BME280;34054;52.100;5.116;2023-07-09T00:02:10;101503.19;;;27.23;70.28
51876;BME280;34054;52.100;5.116;2023-07-09T00:02:42;101495.56;;;27.20;70.15
51876;BME280;34054;52.100;5.116;2023-07-09T00:03:15;101501.13;;;27.20;69.81
51876;BME280;34054;52.100;5.116;2023-07-09T00:03:48;101479.56;;;27.04;71.08
51876;BME280;34054;52.100;5.116;2023-07-09T00:04:22;101493.84;;;27.15;70.98
51876;BME280;34054;52.100;5.116;2023-07-09T00:04:54;101478.06;;;27.07;71.13
51876;BME280;34054;52.100;5.116;2023-07-09T00:05:25;101488.59;;;27.14;71.20
51876;BME280;34054;52.100;5.116;2023-07-09T00:05:58;101492.56;;;27.13;71.41
51876;BME280;34054;52.100;5.116;2023-07-09T00:06:30;101490.22;;;27.15;71.81
51876;BME280;34054;52.100;5.116;2023-07-09T00:07:03;101489.31;;;27.10;72.31
51876;BME280;34054;52.100;5.116;2023-07-09T00:07:36;101490.31;;;27.18;72.18
51876;BME280;34054;52.100;5.116;2023-07-09T00:08:24;101481.66;;;27.07;72.14
51876;BME280;34054;52.100;5.116;2023-07-09T00:08:58;101488.50;;;27.10;72.36
51876;BME280;34054;52.100;5.116;2023-07-09T00:09:31;101482.25;;;27.01;72.79
51876;BME280;34054;52.100;5.116;2023-07-09T00:10:03;101493.97;;;27.06;72.83
51876;BME280;34054;52.100;5.116;2023-07-09T00:10:35;101483.53;;;27.03;72.68
51876;BME280;34054;52.100;5.116;2023-07-09T00:11:08;101502.00;;;27.08;72.46
51876;BME280;34054;52.100;5.116;2023-07-09T00:11:39;101505.13;;;27.06;71.95
51876;BME280;34054;52.100;5.116;2023-07-09T00:12:13;101499.91;;;27.05;72.10
51876;BME280;34054;52.100;5.116;2023-07-09T00:12:48;101500.28;;;27.03;72.63
51876;BME280;34054;52.100;5.116;2023-07-09T00:13:20;101501.88;;;27.04;72.25
51876;BME280;34054;52.100;5.116;2023-07-09T00:13:53;101492.59;;;27.00;72.69
51876;BME280;34054;52.100;5.116;2023-07-09T00:14:25;101500.28;;;27.03;72.70
51876;BME280;34054;52.100;5.116;2023-07-09T00:14:58;101500.59;;;27.02;73.17
51876;BME280;34054;52.100;5.116;2023-07-09T00:15:30;101496.66;;;27.03;73.16
51876;BME280;34054;52.100;5.116;2023-07-09T00:16:09;101500.28;;;27.03;73.59
51876;BME280;34054;52.100;5.116;2023-07-09T00:16:44;101496.91;;;26.98;73.89
51876;BME280;34054;52.100;5.116;2023-07-09T00:17:21;101498.88;;;26.97;73.54
51876;BME280;34054;52.100;5.116;2023-07-09T00:17:57;101502.81;;;26.96;73.91
51876;BME280;34054;52.100;5.116;2023-07-09T00:18:31;101505.59;;;26.96;74.10
51876;BME280;34054;52.100;5.116;2023-07-09T00:19:11;101505.06;;;26.90;74.00
51876;BME280;34054;52.100;5.116;2023-07-09T00:19:44;101506.34;;;26.93;74.34
51876;BME280;34054;52.100;5.116;2023-07-09T00:20:18;101507.59;;;26.95;73.73
51876;BME280;34054;52.100;5.116;2023-07-09T00:20:49;101515.16;;;26.95;73.22
51876;BME280;34054;52.100;5.116;2023-07-09T00:21:22;101518.75;;;26.95;73.28
51876;BME280;34054;52.100;5.116;2023-07-09T00:21:54;101523.06;;;26.93;73.62
51876;BME280;34054;52.100;5.116;2023-07-09T00:22:26;101521.78;;;26.90;73.72
51876;BME280;34054;52.100;5.116;2023-07-09T00:22:58;101504.50;;;26.85;74.34
51876;BME280;34054;52.100;5.116;2023-07-09T00:23:31;101512.59;;;26.90;74.07
51876;BME280;34054;52.100;5.116;2023-07-09T00:24:04;101515.84;;;26.92;74.29
51876;BME280;34054;52.100;5.116;2023-07-09T00:24:36;101522.59;;;26.91;74.75
51876;BME280;34054;52.100;5.116;2023-07-09T00:25:10;101509.34;;;26.88;75.15
51876;BME280;34054;52.100;5.116;2023-07-09T00:25:47;101516.56;;;26.89;74.87
51876;BME280;34054;52.100;5.116;2023-07-09T00:26:19;101522.69;;;26.94;74.30
51876;BME280;34054;52.100;5.116;2023-07-09T00:26:54;101523.75;;;26.90;74.48
51876;BME280;34054;52.100;5.116;2023-07-09T00:27:28;101521.69;;;26.87;75.08
51876;BME280;34054;52.100;5.116;2023-07-09T00:28:02;101524.59;;;26.90;74.89
51876;BME280;34054;52.100;5.116;2023-07-09T00:28:34;101522.22;;;26.92;74.71
51876;BME280;34054;52.100;5.116;2023-07-09T00:29:09;101532.69;;;26.95;74.18
51876;BME280;34054;52.100;5.116;2023-07-09T00:29:43;101539.78;;;26.93;74.31
51876;BME280;34054;52.100;5.116;2023-07-09T00:30:17;101528.06;;;26.87;74.90
51876;BME280;34054;52.100;5.116;2023-07-09T00:30:50;101521.13;;;26.81;75.50
51876;BME280;34054;52.100;5.116;2023-07-09T00:31:22;101521.44;;;26.79;75.45
51876;BME280;34054;52.100;5.116;2023-07-09T00:31:54;101521.22;;;26.85;75.26
51876;BME280;34054;52.100;5.116;2023-07-09T00:32:26;101522.38;;;26.84;75.34
51876;BME280;34054;52.100;5.116;2023-07-09T00:32:59;101521.69;;;26.74;75.14
51876;BME280;34054;52.100;5.116;2023-07-09T00:33:30;101525.53;;;26.82;75.30
51876;BME280;34054;52.100;5.116;2023-07-09T00:34:04;101512.84;;;26.72;75.71
51876;BME280;34054;52.100;5.116;2023-07-09T00:34:35;101528.44;;;26.86;75.68
51876;BME280;34054;52.100;5.116;2023-07-09T00:35:08;101534.69;;;26.83;75.33
51876;BME280;34054;52.100;5.116;2023-07-09T00:35:41;101533.88;;;26.82;75.96
51876;BME280;34054;52.100;5.116;2023-07-09T00:36:15;101526.88;;;26.76;76.33
51876;BME280;34054;52.100;5.116;2023-07-09T00:36:49;101520.75;;;26.70;76.10
51876;BME280;34054;52.100;5.116;2023-07-09T00:37:24;101528.03;;;26.75;76.47
51876;BME280;34054;52.100;5.116;2023-07-09T00:37:56;101532.03;;;26.74;76.13
51876;BME280;34054;52.100;5.116;2023-07-09T00:38:31;101526.44;;;26.74;75.64
51876;BME280;34054;52.100;5.116;2023-07-09T00:39:14;101541.88;;;26.71;75.08
51876;BME280;34054;52.100;5.116;2023-07-09T00:39:48;101532.59;;;26.67;75.73
51876;BME280;34054;52.100;5.116;2023-07-09T00:40:22;101542.81;;;26.75;75.83
51876;BME280;34054;52.100;5.116;2023-07-09T00:41:02;101537.13;;;26.72;76.30
51876;BME280;34054;52.100;5.116;2023-07-09T00:41:37;101536.75;;;26.73;76.05
51876;BME280;34054;52.100;5.116;2023-07-09T00:42:13;101527.84;;;26.68;76.28
51876;BME280;34054;52.100;5.116;2023-07-09T00:42:53;101513.47;;;26.53;76.07
51876;BME280;34054;52.100;5.116;2023-07-09T00:43:30;101541.88;;;26.71;76.57
51876;BME280;34054;52.100;5.116;2023-07-09T00:44:23;101550.22;;;26.71;75.59
51876;BME280;34054;52.100;5.116;2023-07-09T00:45:04;101555.78;;;26.71;74.97
51876;BME280;34054;52.100;5.116;2023-07-09T00:46:16;101560.47;;;26.67;75.39
51876;BME280;34054;52.100;5.116;2023-07-09T00:47:21;101555.59;;;26.64;75.68
51876;BME280;34054;52.100;5.116;2023-07-09T00:47:58;101549.69;;;26.65;76.49
51876;BME280;34054;52.100;5.116;2023-07-09T00:48:33;101552.91;;;26.68;76.34
51876;BME280;34054;52.100;5.116;2023-07-09T00:49:07;101545.72;;;26.67;76.42
51876;BME280;34054;52.100;5.116;2023-07-09T00:49:41;101552.91;;;26.68;76.48
51876;BME280;34054;52.100;5.116;2023-07-09T00:50:26;101557.22;;;26.65;76.39
51876;BME280;34054;52.100;5.116;2023-07-09T00:51:10;101554.66;;;26.60;76.90
51876;BME280;34054;52.100;5.116;2023-07-09T00:51:46;101495.53;;;26.26;76.80
51876;BME280;34054;52.100;5.116;2023-07-09T00:52:23;101551.88;;;26.60;76.71
51876;BME280;34054;52.100;5.116;2023-07-09T00:53:09;101553.72;;;26.56;76.40
51876;BME280;34054;52.100;5.116;2023-07-09T00:53:51;101558.63;;;26.59;76.24
51876;BME280;34054;52.100;5.116;2023-07-09T00:54:30;101546.09;;;26.53;76.28
51876;BME280;34054;52.100;5.116;2023-07-09T00:55:10;101553.72;;;26.56;76.79
51876;BME280;34054;52.100;5.116;2023-07-09T00:55:51;101551.78;;;26.56;76.56
51876;BME280;34054;52.100;5.116;2023-07-09T00:56:33;101556.03;;;26.54;76.70
51876;BME280;34054;52.100;5.116;2023-07-09T00:57:13;101548.88;;;26.53;77.23
51876;BME280;34054;52.100;5.116;2023-07-09T00:57:49;101538.91;;;26.52;77.69
51876;BME280;34054;52.100;5.116;2023-07-09T00:58:28;101537.84;;;26.56;78.11
51876;BME280;34054;52.100;5.116;2023-07-09T00:59:04;101535.66;;;26.49;78.47
51876;BME280;34054;52.100;5.116;2023-07-09T00:59:41;101541.69;;;26.52;78.61
51876;BME280;34054;52.100;5.116;2023-07-09T01:00:13;101532.38;;;26.47;78.67
51876;BME280;34054;52.100;5.116;2023-07-09T01:00:51;101540.06;;;26.51;78.38
51876;BME280;34054;52.100;5.116;2023-07-09T01:01:27;101546.53;;;26.55;78.42
51876;BME280;34054;52.100;5.116;2023-07-09T01:01:59;101539.13;;;26.46;78.07
51876;BME280;34054;52.100;5.116;2023-07-09T01:02:31;101531.81;;;26.42;78.24
51876;BME280;34054;52.100;5.116;2023-07-09T01:03:05;101540.38;;;26.49;78.74
51876;BME280;34054;52.100;5.116;2023-07-09T01:03:40;101537.97;;;26.47;79.25
51876;BME280;34054;52.100;5.116;2023-07-09T01:04:16;101545.50;;;26.47;79.29
51876;BME280;34054;52.100;5.116;2023-07-09T01:04:56;101542.00;;;26.50;78.99
51876;BME280;34054;52.100;5.116;2023-07-09T01:05:33;101540.84;;;26.51;78.96
51876;BME280;34054;52.100;5.116;2023-07-09T01:06:05;101536.34;;;26.46;79.21
51876;BME280;34054;52.100;5.116;2023-07-09T01:06:41;101543.16;;;26.49;79.64
51876;BME280;34054;52.100;5.116;2023-07-09T01:07:16;101540.53;;;26.40;79.87
51876;BME280;34054;52.100;5.116;2023-07-09T01:07:50;101536.34;;;26.46;80.19
51876;BME280;34054;52.100;5.116;2023-07-09T01:08:24;101536.22;;;26.43;79.96
51876;BME280;34054;52.100;5.116;2023-07-09T01:08:58;101539.13;;;26.46;79.09
51876;BME280;34054;52.100;5.116;2023-07-09T01:09:32;101525.34;;;26.38;78.97
51876;BME280;34054;52.100;5.116;2023-07-09T01:10:07;101539.59;;;26.48;79.28
51876;BME280;34054;52.100;5.116;2023-07-09T01:10:39;101541.91;;;26.46;78.91
51876;BME280;34054;52.100;5.116;2023-07-09T01:11:16;101541.78;;;26.43;79.46
51876;BME280;34054;52.100;5.116;2023-07-09T01:11:52;101543.31;;;26.40;79.86
51876;BME280;34054;52.100;5.116;2023-07-09T01:12:27;101542.84;;;26.38;79.81
51876;BME280;34054;52.100;5.116;2023-07-09T01:13:01;101539.47;;;26.32;79.36
51876;BME280;34054;52.100;5.116;2023-07-09T01:13:33;101531.84;;;26.29;78.87
51876;BME280;34054;52.100;5.116;2023-07-09T01:14:07;101518.25;;;26.15;79.05
51876;BME280;34054;52.100;5.116;2023-07-09T01:14:42;101533.34;;;26.27;79.87
51876;BME280;34054;52.100;5.116;2023-07-09T01:15:22;101533.56;;;26.34;80.24
51876;BME280;34054;52.100;5.116;2023-07-09T01:15:55;101542.50;;;26.40;80.29
51876;BME280;34054;52.100;5.116;2023-07-09T01:16:30;101545.28;;;26.40;80.51
51876;BME280;34054;52.100;5.116;2023-07-09T01:17:09;101538.78;;;26.36;80.86
51876;BME280;34054;52.100;5.116;2023-07-09T01:17:42;101539.03;;;26.30;81.17
51876;BME280;34054;52.100;5.116;2023-07-09T01:18:15;101541.34;;;26.28;81.28
51876;BME280;34054;52.100;5.116;2023-07-09T01:18:48;101543.75;;;26.30;81.39
51876;BME280;34054;52.100;5.116;2023-07-09T01:19:21;101530.31;;;26.20;81.37
51876;BME280;34054;52.100;5.116;2023-07-09T01:19:56;101550.97;;;26.31;81.55
51876;BME280;34054;52.100;5.116;2023-07-09T01:20:28;101548.88;;;26.28;81.93
51876;BME280;34054;52.100;5.116;2023-07-09T01:21:07;101542.03;;;26.25;81.86
51876;BME280;34054;52.100;5.116;2023-07-09T01:21:46;101547.94;;;26.24;82.21
51876;BME280;34054;52.100;5.116;2023-07-09T01:22:19;101534.59;;;26.17;82.73
51876;BME280;34054;52.100;5.116;2023-07-09T01:22:52;101546.31;;;26.23;82.58
51876;BME280;34054;52.100;5.116;2023-07-09T01:23:27;101551.66;;;26.28;82.18
51876;BME280;34054;52.100;5.116;2023-07-09T01:24:11;101542.50;;;26.27;82.37
51876;BME280;34054;52.100;5.116;2023-07-09T01:24:57;101551.53;;;26.24;82.68
51876;BME280;34054;52.100;5.116;2023-07-09T01:25:32;101531.69;;;26.13;82.57
51876;BME280;34054;52.100;5.116;2023-07-09T01:26:04;101552.34;;;26.25;82.67
51876;BME280;34054;52.100;5.116;2023-07-09T01:26:35;101549.56;;;26.25;82.88
51876;BME280;34054;52.100;5.116;2023-07-09T01:27:09;101556.78;;;26.26;82.35
51876;BME280;34054;52.100;5.116;2023-07-09T01:27:46;101543.78;;;26.17;82.40
51876;BME280;34054;52.100;5.116;2023-07-09T01:28:18;101554.66;;;26.23;82.52
51876;BME280;34054;52.100;5.116;2023-07-09T01:28:52;101560.91;;;26.20;82.69
51876;BME280;34054;52.100;5.116;2023-07-09T01:29:24;101554.09;;;26.17;82.73
51876;BME280;34054;52.100;5.116;2023-07-09T01:30:05;101552.47;;;26.16;82.90
51876;BME280;34054;52.100;5.116;2023-07-09T01:30:42;101545.25;;;26.15;83.49
51876;BME280;34054;52.100;5.116;2023-07-09T01:31:15;101551.19;;;26.13;83.50
51876;BME280;34054;52.100;5.116;2023-07-09T01:31:48;101540.41;;;26.12;83.72
51876;BME280;34054;52.100;5.116;2023-07-09T01:32:22;101556.41;;;26.15;84.04
51876;BME280;34054;52.100;5.116;2023-07-09T01:32:56;101555.94;;;26.13;83.66
51876;BME280;34054;52.100;5.116;2023-07-09T01:33:29;101559.19;;;26.15;83.32
51876;BME280;34054;52.100;5.116;2023-07-09T01:34:02;101556.41;;;26.15;83.61
51876;BME280;34054;52.100;5.116;2023-07-09T01:34:34;101559.19;;;26.15;83.43
51876;BME280;34054;52.100;5.116;2023-07-09T01:35:06;101568.34;;;26.15;83.40
51876;BME280;34054;52.100;5.116;2023-07-09T01:35:39;101553.06;;;26.09;83.65
51876;BME280;34054;52.100;5.116;2023-07-09T01:36:18;101559.06;;;26.11;84.10
51876;BME280;34054;52.100;5.116;2023-07-09T01:36:54;101542.81;;;26.01;84.51
51876;BME280;34054;52.100;5.116;2023-07-09T01:37:27;101546.50;;;26.05;85.01
51876;BME280;34054;52.100;5.116;2023-07-09T01:37:59;101546.50;;;26.05;85.08
51876;BME280;34054;52.100;5.116;2023-07-09T01:38:33;101559.41;;;26.10;85.23
51876;BME280;34054;52.100;5.116;2023-07-09T01:39:05;101558.63;;;26.09;84.75
51876;BME280;34054;52.100;5.116;2023-07-09T01:39:36;101560.22;;;26.10;84.95
51876;BME280;34054;52.100;5.116;2023-07-09T01:40:11;101559.41;;;26.10;84.91
51876;BME280;34054;52.100;5.116;2023-07-09T01:40:45;101550.13;;;26.06;84.98
51876;BME280;34054;52.100;5.116;2023-07-09T01:41:17;101566.84;;;26.18;85.05
51876;BME280;34054;52.100;5.116;2023-07-09T01:41:50;101570.56;;;26.22;84.36
51876;BME280;34054;52.100;5.116;2023-07-09T01:42:24;101565.69;;;26.19;84.74
51876;BME280;34054;52.100;5.116;2023-07-09T01:43:02;101570.47;;;26.18;84.55
51876;BME280;34054;52.100;5.116;2023-07-09T01:43:37;101566.72;;;26.14;84.26
51876;BME280;34054;52.100;5.116;2023-07-09T01:44:09;101553.69;;;26.06;84.27
51876;BME280;34054;52.100;5.116;2023-07-09T01:44:43;101577.50;;;26.16;83.96
51876;BME280;34054;52.100;5.116;2023-07-09T01:45:17;101568.84;;;26.17;84.03
51876;BME280;34054;52.100;5.116;2023-07-09T01:45:51;101569.97;;;26.16;84.58
51876;BME280;34054;52.100;5.116;2023-07-09T01:46:23;101568.00;;;26.17;84.58
51876;BME280;34054;52.100;5.116;2023-07-09T01:46:55;101566.25;;;26.12;84.63
51876;BME280;34054;52.100;5.116;2023-07-09T01:47:27;101565.78;;;26.10;84.94
51876;BME280;34054;52.100;5.116;2023-07-09T01:47:59;101570.31;;;26.15;84.96
51876;BME280;34054;52.100;5.116;2023-07-09T01:48:31;101569.50;;;26.14;84.44
51876;BME280;34054;52.100;5.116;2023-07-09T01:49:12;101584.59;;;26.13;83.96
51876;BME280;34054;52.100;5.116;2023-07-09T01:49:44;101565.78;;;26.10;84.50
51876;BME280;34054;52.100;5.116;2023-07-09T01:50:17;101558.78;;;26.04;84.89
51876;BME280;34054;52.100;5.116;2023-07-09T01:50:49;101566.13;;;26.09;85.31
51876;BME280;34054;52.100;5.116;2023-07-09T01:51:24;101568.41;;;26.07;85.60
51876;BME280;34054;52.100;5.116;2023-07-09T01:52:00;101570.56;;;26.10;85.34
51876;BME280;34054;52.100;5.116;2023-07-09T01:52:33;101572.38;;;26.06;85.21
51876;BME280;34054;52.100;5.116;2023-07-09T01:53:05;101570.03;;;26.08;85.05
51876;BME280;34054;52.100;5.116;2023-07-09T01:53:40;101560.97;;;25.98;85.15
51876;BME280;34054;52.100;5.116;2023-07-09T01:54:12;101561.94;;;26.02;85.18
51876;BME280;34054;52.100;5.116;2023-07-09T01:54:43;101560.19;;;25.98;85.20
51876;BME280;34054;52.100;5.116;2023-07-09T01:55:20;101575.16;;;26.06;84.83
51876;BME280;34054;52.100;5.116;2023-07-09T01:55:53;101573.97;;;26.07;85.23
51876;BME280;34054;52.100;5.116;2023-07-09T01:56:25;101573.53;;;26.05;85.61
51876;BME280;34054;52.100;5.116;2023-07-09T01:57:14;101572.03;;;26.07;85.56
51876;BME280;34054;52.100;5.116;2023-07-09T01:57:50;101572.38;;;26.06;85.84
51876;BME280;34054;52.100;5.116;2023-07-09T01:58:23;101567.50;;;26.02;85.58
51876;BME280;34054;52.100;5.116;2023-07-09T01:58:55;101573.06;;;26.02;85.70
51876;BME280;34054;52.100;5.116;2023-07-09T01:59:32;101575.84;;;26.02;86.09
51876;BME280;34054;52.100;5.116;2023-07-09T02:00:06;101575.50;;;26.04;86.46
51876;BME280;34054;52.100;5.116;2023-07-09T02:00:44;101567.63;;;26.06;86.48
51876;BME280;34054;52.100;5.116;2023-07-09T02:01:16;101568.41;;;26.07;86.74
51876;BME280;34054;52.100;5.116;2023-07-09T02:01:50;101560.06;;;25.94;86.75
51876;BME280;34054;52.100;5.116;2023-07-09T02:02:28;101572.94;;;25.99;86.90
51876;BME280;34054;52.100;5.116;2023-07-09T02:03:03;101569.44;;;25.90;87.01
51876;BME280;34054;52.100;5.116;2023-07-09T02:03:35;101572.59;;;26.00;86.96
51876;BME280;34054;52.100;5.116;2023-07-09T02:04:07;101573.31;;;25.97;86.77
51876;BME280;34054;52.100;5.116;2023-07-09T02:04:40;101581.53;;;26.06;86.25
51876;BME280;34054;52.100;5.116;2023-07-09T02:05:16;101585.25;;;26.10;85.62
51876;BME280;34054;52.100;5.116;2023-07-09T02:05:49;101589.41;;;26.04;85.97
51876;BME280;34054;52.100;5.116;2023-07-09T02:06:22;101582.22;;;26.03;86.22
51876;BME280;34054;52.100;5.116;2023-07-09T02:06:56;101576.53;;;25.99;86.64
51876;BME280;34054;52.100;5.116;2023-07-09T02:07:28;101572.13;;;25.98;86.86
51876;BME280;34054;52.100;5.116;2023-07-09T02:08:00;101571.66;;;25.96;87.25
51876;BME280;34054;52.100;5.116;2023-07-09T02:08:32;101582.56;;;26.01;85.75
51876;BME280;34054;52.100;5.116;2023-07-09T02:09:04;101585.34;;;26.01;85.64
51876;BME280;34054;52.100;5.116;2023-07-09T02:09:36;101557.84;;;25.87;86.03
51876;BME280;34054;52.100;5.116;2023-07-09T02:10:08;101580.34;;;25.95;86.42
51876;BME280;34054;52.100;5.116;2023-07-09T02:10:43;101562.59;;;25.87;86.61
51876;BME280;34054;52.100;5.116;2023-07-09T02:11:15;101574.53;;;25.87;86.37
51876;BME280;34054;52.100;5.116;2023-07-09T02:11:47;101575.81;;;25.90;86.45
51876;BME280;34054;52.100;5.116;2023-07-09T02:12:19;101576.84;;;25.85;86.77
51876;BME280;34054;52.100;5.116;2023-07-09T02:12:52;101577.44;;;25.79;87.27
51876;BME280;34054;52.100;5.116;2023-07-09T02:13:23;101557.44;;;25.64;88.17
51876;BME280;34054;52.100;5.116;2023-07-09T02:13:55;101567.53;;;25.69;88.60
51876;BME280;34054;52.100;5.116;2023-07-09T02:14:26;101573.44;;;25.67;88.84
51876;BME280;34054;52.100;5.116;2023-07-09T02:14:59;101570.19;;;25.65;89.17
51876;BME280;34054;52.100;5.116;2023-07-09T02:15:31;101569.13;;;25.58;90.06
51876;BME280;34054;52.100;5.116;2023-07-09T02:16:04;101574.34;;;25.59;89.75
51876;BME280;34054;52.100;5.116;2023-07-09T02:16:36;101522.28;;;25.26;90.10
51876;BME280;34054;52.100;5.116;2023-07-09T02:17:09;101577.78;;;25.56;90.19
51876;BME280;34054;52.100;5.116;2023-07-09T02:17:42;101559.03;;;25.53;91.01
51876;BME280;34054;52.100;5.116;2023-07-09T02:18:17;101558.91;;;25.49;91.28
51876;BME280;34054;52.100;5.116;2023-07-09T02:18:49;101571.78;;;25.54;91.64
51876;BME280;34054;52.100;5.116;2023-07-09T02:19:20;101576.53;;;25.53;91.61
51876;BME280;34054;52.100;5.116;2023-07-09T02:19:52;101559.44;;;25.43;91.96
51876;BME280;34054;52.100;5.116;2023-07-09T02:20:24;101570.16;;;25.53;92.31
51876;BME280;34054;52.100;5.116;2023-07-09T02:20:57;101576.16;;;25.55;91.69
51876;BME280;34054;52.100;5.116;2023-07-09T02:21:28;101579.66;;;25.52;91.96
51876;BME280;34054;52.100;5.116;2023-07-09T02:22:04;101575.59;;;25.49;92.23
51876;BME280;34054;52.100;5.116;2023-07-09T02:22:37;101575.59;;;25.49;92.08
51876;BME280;34054;52.100;5.116;2023-07-09T02:23:10;101583.34;;;25.56;92.25
51876;BME280;34054;52.100;5.116;2023-07-09T02:23:42;101579.78;;;25.55;92.10
51876;BME280;34054;52.100;5.116;2023-07-09T02:24:14;101579.78;;;25.55;92.18
51876;BME280;34054;52.100;5.116;2023-07-09T02:24:46;101582.22;;;25.57;92.09
51876;BME280;34054;52.100;5.116;2023-07-09T02:25:17;101585.47;;;25.59;91.98
51876;BME280;34054;52.100;5.116;2023-07-09T02:25:50;101580.69;;;25.60;91.99
51876;BME280;34054;52.100;5.116;2023-07-09T02:26:22;101587.09;;;25.60;92.21
51876;BME280;34054;52.100;5.116;2023-07-09T02:26:53;101577.34;;;25.54;91.91
51876;BME280;34054;52.100;5.116;2023-07-09T02:27:25;101577.13;;;25.59;91.89
51876;BME280;34054;52.100;5.116;2023-07-09T02:28:00;101570.28;;;25.57;91.83
51876;BME280;34054;52.100;5.116;2023-07-09T02:28:31;101575.13;;;25.60;91.88
51876;BME280;34054;52.100;5.116;2023-07-09T02:29:03;101547.34;;;25.38;91.60
51876;BME280;34054;52.100;5.116;2023-07-09T02:29:35;101582.69;;;25.59;91.81
51876;BME280;34054;52.100;5.116;2023-07-09T02:30:09;101578.28;;;25.58;91.72
51876;BME280;34054;52.100;5.116;2023-07-09T02:30:42;101572.72;;;25.58;91.65
51876;BME280;34054;52.100;5.116;2023-07-09T02:31:13;101590.34;;;25.62;91.54
51876;BME280;34054;52.100;5.116;2023-07-09T02:31:48;101583.16;;;25.61;91.85
51876;BME280;34054;52.100;5.116;2023-07-09T02:32:22;101588.38;;;25.63;91.89
51876;BME280;34054;52.100;5.116;2023-07-09T02:32:56;101588.72;;;25.61;91.71
51876;BME280;34054;52.100;5.116;2023-07-09T02:33:28;101581.41;;;25.57;91.78
51876;BME280;34054;52.100;5.116;2023-07-09T02:34:04;101576.78;;;25.61;90.80
51876;BME280;34054;52.100;5.116;2023-07-09T02:34:36;101581.66;;;25.64;91.00
51876;BME280;34054;52.100;5.116;2023-07-09T02:35:08;101590.22;;;25.59;91.32
51876;BME280;34054;52.100;5.116;2023-07-09T02:35:40;101581.88;;;25.59;91.18
51876;BME280;34054;52.100;5.116;2023-07-09T02:36:12;101575.59;;;25.49;91.72
51876;BME280;34054;52.100;5.116;2023-07-09T02:36:44;101572.47;;;25.51;91.92
51876;BME280;34054;52.100;5.116;2023-07-09T02:37:21;101583.94;;;25.49;92.30
51876;BME280;34054;52.100;5.116;2023-07-09T02:37:55;101576.38;;;25.50;92.26
51876;BME280;34054;52.100;5.116;2023-07-09T02:38:28;101575.47;;;25.46;92.47
51876;BME280;34054;52.100;5.116;2023-07-09T02:39:02;101571.25;;;25.39;92.65
51876;BME280;34054;52.100;5.116;2023-07-09T02:39:34;101576.94;;;25.43;92.58
51876;BME280;34054;52.100;5.116;2023-07-09T02:40:11;101572.06;;;25.40;92.99
51876;BME280;34054;52.100;5.116;2023-07-09T02:40:44;101573.53;;;25.37;93.09
51876;BME280;34054;52.100;5.116;2023-07-09T02:41:16;101573.25;;;25.30;93.80
51876;BME280;34054;52.100;5.116;2023-07-09T02:41:48;101571.31;;;25.31;94.17
51876;BME280;34054;52.100;5.116;2023-07-09T02:42:22;101571.44;;;25.34;94.13
51876;BME280;34054;52.100;5.116;2023-07-09T02:42:54;101577.13;;;25.38;94.02
51876;BME280;34054;52.100;5.116;2023-07-09T02:43:26;101574.34;;;25.38;94.18
51876;BME280;34054;52.100;5.116;2023-07-09T02:43:57;101571.44;;;25.34;94.27
51876;BME280;34054;52.100;5.116;2023-07-09T02:44:30;101575.00;;;25.35;94.51
51876;BME280;34054;52.100;5.116;2023-07-09T02:45:02;101580.56;;;25.35;94.48
51876;BME280;34054;52.100;5.116;2023-07-09T02:45:35;101578.28;;;25.37;94.14
51876;BME280;34054;52.100;5.116;2023-07-09T02:46:07;101577.47;;;25.36;93.99
51876;BME280;34054;52.100;5.116;2023-07-09T02:46:39;101577.94;;;25.38;93.98
51876;BME280;34054;52.100;5.116;2023-07-09T02:47:11;101575.84;;;25.35;94.45
51876;BME280;34054;52.100;5.116;2023-07-09T02:47:44;101577.47;;;25.36;94.42
51876;BME280;34054;52.100;5.116;2023-07-09T02:48:17;101578.63;;;25.35;94.72
51876;BME280;34054;52.100;5.116;2023-07-09T02:48:48;101577.47;;;25.36;94.89
51876;BME280;34054;52.100;5.116;2023-07-09T02:49:22;101582.06;;;25.32;95.00
51876;BME280;34054;52.100;5.116;2023-07-09T02:49:55;101572.47;;;25.30;95.10
51876;BME280;34054;52.100;5.116;2023-07-09T02:50:26;101581.72;;;25.34;95.32
51876;BME280;34054;52.100;5.116;2023-07-09T02:50:58;101571.31;;;25.31;95.17
51876;BME280;34054;52.100;5.116;2023-07-09T02:51:30;101583.66;;;25.42;95.03
51876;BME280;34054;52.100;5.116;2023-07-09T02:52:02;101584.13;;;25.44;94.66
51876;BME280;34054;52.100;5.116;2023-07-09T02:52:37;101575.84;;;25.35;94.89
51876;BME280;34054;52.100;5.116;2023-07-09T02:53:09;101591.19;;;25.42;95.10
51876;BME280;34054;52.100;5.116;2023-07-09T02:53:40;101570.16;;;25.32;95.15
51876;BME280;34054;52.100;5.116;2023-07-09T02:54:12;101579.09;;;25.37;95.60
51876;BME280;34054;52.100;5.116;2023-07-09T02:54:45;101587.75;;;25.36;95.45
51876;BME280;34054;52.100;5.116;2023-07-09T02:55:17;101580.56;;;25.35;95.65
51876;BME280;34054;52.100;5.116;2023-07-09T02:55:48;101579.78;;;25.34;95.76
51876;BME280;34054;52.100;5.116;2023-07-09T02:56:24;101577.00;;;25.34;95.27
51876;BME280;34054;52.100;5.116;2023-07-09T02:56:58;101584.19;;;25.35;95.22
51876;BME280;34054;52.100;5.116;2023-07-09T02:57:30;101590.03;;;25.43;94.97
51876;BME280;34054;52.100;5.116;2023-07-09T02:58:01;101592.47;;;25.44;94.80
51876;BME280;34054;52.100;5.116;2023-07-09T02:58:34;101584.81;;;25.41;94.91
51876;BME280;34054;52.100;5.116;2023-07-09T02:59:05;101562.50;;;25.29;95.10